sensor_id;sensor_type;location;lat;lon;timestamp;pressure;altitude;pressure_sealevel;temperature;humidity
50702;BME280;36670;50.094;8.496;2022-10-03T00:01:02;101198.81;;;12.40;81.59
50702;BME280;36670;50.094;8.496;2022-10-03T00:03:49;101206.78;;;12.36;81.80
50702;BME280;36670;50.094;8.496;2022-10-03T00:06:51;101201.94;;;12.43;82.36
50702;BME280;36670;50.094;8.496;2022-10-03T00:10:28;101209.19;;;12.44;82.26
50702;BME280;36670;50.094;8.496;2022-10-03T00:12:38;101201.44;;;12.58;82.28
50702;BME280;36670;50.094;8.496;2022-10-03T00:15:21;101194.78;;;12.59;81.69
50702;BME280;36670;50.094;8.496;2022-10-03T00:21:08;101199.88;;;12.62;81.76
50702;BME280;36670;50.094;8.496;2022-10-03T00:26:56;101199.25;;;12.60;81.55
50702;BME280;36670;50.094;8.496;2022-10-03T00:29:35;101202.47;;;12.69;81.23
50702;BME280;36670;50.094;8.496;2022-10-03T00:32:11;101201.28;;;12.77;80.89
50702;BME280;36670;50.094;8.496;2022-10-03T00:34:56;101193.31;;;12.80;81.48
50702;BME280;36670;50.094;8.496;2022-10-03T00:37:29;101192.22;;;12.81;80.63
50702;BME280;36670;50.094;8.496;2022-10-03T00:53:47;101200.31;;;12.71;80.71
50702;BME280;36670;50.094;8.496;2022-10-03T00:56:44;101201.16;;;12.72;80.00
50702;BME280;36670;50.094;8.496;2022-10-03T01:01:48;101221.88;;;12.69;79.30
50702;BME280;36670;50.094;8.496;2022-10-03T01:07:01;101230.97;;;12.41;79.64
50702;BME280;36670;50.094;8.496;2022-10-03T01:12:30;101238.25;;;11.88;81.55
50702;BME280;36670;50.094;8.496;2022-10-03T01:15:21;101242.25;;;12.04;80.78
50702;BME280;36670;50.094;8.496;2022-10-03T01:20:44;101239.63;;;11.97;81.38
50702;BME280;36670;50.094;8.496;2022-10-03T01:23:38;101241.16;;;11.93;82.36
50702;BME280;36670;50.094;8.496;2022-10-03T01:29:02;101242.75;;;12.01;82.20
50702;BME280;36670;50.094;8.496;2022-10-03T01:33:02;101242.44;;;11.78;82.91
50702;BME280;36670;50.094;8.496;2022-10-03T01:35:09;101243.56;;;11.89;82.60
50702;BME280;36670;50.094;8.496;2022-10-03T01:40:33;101247.06;;;11.97;81.98
50702;BME280;36670;50.094;8.496;2022-10-03T01:43:16;101245.25;;;11.90;81.88
50702;BME280;36670;50.094;8.496;2022-10-03T01:45:47;101253.28;;;11.80;82.18
50702;BME280;36670;50.094;8.496;2022-10-03T01:48:35;101253.78;;;11.89;81.85
50702;BME280;36670;50.094;8.496;2022-10-03T01:51:13;101259.91;;;11.79;82.01
50702;BME280;36670;50.094;8.496;2022-10-03T01:56:36;101271.31;;;11.83;82.84
50702;BME280;36670;50.094;8.496;2022-10-03T01:59:13;101270.75;;;11.92;81.77
50702;BME280;36670;50.094;8.496;2022-10-03T02:02:00;101271.63;;;12.05;81.37
50702;BME280;36670;50.094;8.496;2022-10-03T02:04:39;101278.03;;;12.05;81.17
50702;BME280;36670;50.094;8.496;2022-10-03T02:13:24;101274.44;;;12.40;80.37
50702;BME280;36670;50.094;8.496;2022-10-03T02:16:01;101274.41;;;12.52;80.19
50702;BME280;36670;50.094;8.496;2022-10-03T02:21:27;101278.06;;;12.53;80.74
50702;BME280;36670;50.094;8.496;2022-10-03T02:44:27;101277.78;;;12.78;80.25
50702;BME280;36670;50.094;8.496;2022-10-03T02:52:52;101285.09;;;12.84;79.49
50702;BME280;36670;50.094;8.496;2022-10-03T03:06:25;101295.56;;;12.94;80.31
50702;BME280;36670;50.094;8.496;2022-10-03T03:18:17;101304.78;;;12.71;79.41
50702;BME280;36670;50.094;8.496;2022-10-03T03:23:47;101315.97;;;12.52;79.59
50702;BME280;36670;50.094;8.496;2022-10-03T03:27:17;101322.72;;;12.44;79.74
50702;BME280;36670;50.094;8.496;2022-10-03T03:29:56;101325.94;;;12.41;80.16
50702;BME280;36670;50.094;8.496;2022-10-03T03:35:53;101331.38;;;12.48;79.83
50702;BME280;36670;50.094;8.496;2022-10-03T03:38:53;101325.50;;;12.56;80.35
50702;BME280;36670;50.094;8.496;2022-10-03T03:41:55;101328.97;;;12.63;79.55
50702;BME280;36670;50.094;8.496;2022-10-03T03:44:45;101329.72;;;12.71;79.23
50702;BME280;36670;50.094;8.496;2022-10-03T03:53:04;101328.34;;;12.97;79.45
50702;BME280;36670;50.094;8.496;2022-10-03T03:58:37;101323.78;;;13.03;79.23
50702;BME280;36670;50.094;8.496;2022-10-03T04:01:11;101328.22;;;13.04;79.02
50702;BME280;36670;50.094;8.496;2022-10-03T04:31:59;101344.09;;;12.13;80.79
50702;BME280;36670;50.094;8.496;2022-10-03T04:37:40;101358.91;;;12.07;80.64
50702;BME280;36670;50.094;8.496;2022-10-03T04:48:33;101364.81;;;12.23;79.87
50702;BME280;36670;50.094;8.496;2022-10-03T04:51:15;101362.09;;;12.35;80.40
50702;BME280;36670;50.094;8.496;2022-10-03T04:56:39;101367.19;;;12.07;80.95
50702;BME280;36670;50.094;8.496;2022-10-03T05:15:23;101360.63;;;12.44;80.19
50702;BME280;36670;50.094;8.496;2022-10-03T05:18:05;101357.38;;;12.23;79.91
50702;BME280;36670;50.094;8.496;2022-10-03T05:20:43;101358.22;;;12.24;79.04
50702;BME280;36670;50.094;8.496;2022-10-03T05:23:28;101360.59;;;12.20;80.57
50702;BME280;36670;50.094;8.496;2022-10-03T05:26:17;101362.78;;;12.18;80.00
50702;BME280;36670;50.094;8.496;2022-10-03T05:29:14;101362.53;;;12.20;79.99
50702;BME280;36670;50.094;8.496;2022-10-03T05:39:33;101371.81;;;12.25;79.85
50702;BME280;36670;50.094;8.496;2022-10-03T05:42:20;101366.88;;;12.27;79.48
50702;BME280;36670;50.094;8.496;2022-10-03T05:45:03;101375.19;;;12.27;79.90
50702;BME280;36670;50.094;8.496;2022-10-03T05:47:36;101381.81;;;12.26;80.12
50702;BME280;36670;50.094;8.496;2022-10-03T05:52:55;101383.41;;;12.04;80.99
50702;BME280;36670;50.094;8.496;2022-10-03T06:04:00;101383.28;;;12.41;79.40
50702;BME280;36670;50.094;8.496;2022-10-03T06:06:47;101386.06;;;12.41;79.69
50702;BME280;36670;50.094;8.496;2022-10-03T06:09:41;101381.25;;;12.48;79.06
50702;BME280;36670;50.094;8.496;2022-10-03T06:13:01;101382.56;;;12.45;79.78
50702;BME280;36670;50.094;8.496;2022-10-03T06:15:29;101377.63;;;12.59;79.14
50702;BME280;36670;50.094;8.496;2022-10-03T06:21:01;101386.94;;;12.89;78.62
50702;BME280;36670;50.094;8.496;2022-10-03T06:23:59;101391.13;;;12.91;78.54
50702;BME280;36670;50.094;8.496;2022-10-03T06:26:53;101392.00;;;12.92;78.26
50702;BME280;36670;50.094;8.496;2022-10-03T06:29:48;101394.88;;;13.09;77.86
50702;BME280;36670;50.094;8.496;2022-10-03T06:35:53;101406.19;;;12.95;77.27
50702;BME280;36670;50.094;8.496;2022-10-03T06:47:23;101410.56;;;13.68;76.83
50702;BME280;36670;50.094;8.496;2022-10-03T06:55:25;101409.22;;;15.35;72.22
50702;BME280;36670;50.094;8.496;2022-10-03T07:09:55;101415.63;;;14.28;74.47
50702;BME280;36670;50.094;8.496;2022-10-03T07:15:23;101423.59;;;14.25;74.21
50702;BME280;36670;50.094;8.496;2022-10-03T07:31:42;101423.19;;;14.33;73.38
50702;BME280;36670;50.094;8.496;2022-10-03T07:37:34;101435.34;;;14.44;73.27
50702;BME280;36670;50.094;8.496;2022-10-03T07:54:32;101445.28;;;14.57;73.55
50702;BME280;36670;50.094;8.496;2022-10-03T07:57:22;101449.63;;;14.81;72.73
50702;BME280;36670;50.094;8.496;2022-10-03T08:02:53;101459.81;;;14.93;72.29
50702;BME280;36670;50.094;8.496;2022-10-03T08:05:44;101455.75;;;15.17;71.36
50702;BME280;36670;50.094;8.496;2022-10-03T08:17:14;101458.59;;;16.33;69.34
50702;BME280;36670;50.094;8.496;2022-10-03T08:37:00;101450.72;;;15.98;66.24
50702;BME280;36670;50.094;8.496;2022-10-03T08:39:57;101454.69;;;16.07;66.08
50702;BME280;36670;50.094;8.496;2022-10-03T08:43:05;101463.47;;;16.21;64.84
50702;BME280;36670;50.094;8.496;2022-10-03T08:45:56;101464.09;;;16.23;64.72
50702;BME280;36670;50.094;8.496;2022-10-03T08:48:59;101464.13;;;16.28;64.33
50702;BME280;36670;50.094;8.496;2022-10-03T08:51:48;101471.38;;;16.02;64.48
50702;BME280;36670;50.094;8.496;2022-10-03T08:54:42;101474.63;;;15.77;65.28
50702;BME280;36670;50.094;8.496;2022-10-03T09:11:31;101464.84;;;16.46;63.68
50702;BME280;36670;50.094;8.496;2022-10-03T09:19:38;101469.13;;;16.86;63.96
50702;BME280;36670;50.094;8.496;2022-10-03T09:25:27;101463.75;;;17.06;59.91
50702;BME280;36670;50.094;8.496;2022-10-03T09:36:40;101464.50;;;16.97;59.58
50702;BME280;36670;50.094;8.496;2022-10-03T09:39:36;101461.47;;;17.03;60.97
50702;BME280;36670;50.094;8.496;2022-10-03T09:50:51;101453.22;;;17.19;55.17
50702;BME280;36670;50.094;8.496;2022-10-03T10:12:44;101454.56;;;18.38;54.21
50702;BME280;36670;50.094;8.496;2022-10-03T10:15:48;101455.97;;;18.40;53.20
50702;BME280;36670;50.094;8.496;2022-10-03T10:36:00;101441.72;;;17.58;52.65
50702;BME280;36670;50.094;8.496;2022-10-03T10:38:38;101445.44;;;17.79;53.75
50702;BME280;36670;50.094;8.496;2022-10-03T10:46:49;101434.38;;;18.20;51.95
50702;BME280;36670;50.094;8.496;2022-10-03T10:56:12;101433.94;;;17.70;52.05
50702;BME280;36670;50.094;8.496;2022-10-03T11:17:06;101438.59;;;18.28;53.42
50702;BME280;36670;50.094;8.496;2022-10-03T11:30:57;101426.34;;;18.60;52.08
50702;BME280;36670;50.094;8.496;2022-10-03T11:34:02;101417.34;;;19.25;52.15
50702;BME280;36670;50.094;8.496;2022-10-03T11:36:47;101412.56;;;19.25;50.90
50702;BME280;36670;50.094;8.496;2022-10-03T11:39:39;101421.13;;;19.60;50.89
50702;BME280;36670;50.094;8.496;2022-10-03T11:58:59;101420.44;;;18.31;49.27
50702;BME280;36670;50.094;8.496;2022-10-03T12:01:46;101411.75;;;18.12;49.20
50702;BME280;36670;50.094;8.496;2022-10-03T12:07:16;101406.69;;;17.98;50.89
50702;BME280;36670;50.094;8.496;2022-10-03T12:10:40;101413.97;;;18.10;51.33
50702;BME280;36670;50.094;8.496;2022-10-03T12:13:12;101413.19;;;18.60;51.56
50702;BME280;36670;50.094;8.496;2022-10-03T12:15:53;101416.81;;;19.02;50.76
50702;BME280;36670;50.094;8.496;2022-10-03T12:29:15;101400.59;;;19.09;49.94
50702;BME280;36670;50.094;8.496;2022-10-03T12:34:37;101387.66;;;19.24;49.82
50702;BME280;36670;50.094;8.496;2022-10-03T12:37:10;101391.59;;;19.18;48.94
50702;BME280;36670;50.094;8.496;2022-10-03T12:42:39;101381.81;;;19.15;48.66
50702;BME280;36670;50.094;8.496;2022-10-03T12:45:39;101382.59;;;19.31;48.65
50702;BME280;36670;50.094;8.496;2022-10-03T12:53:48;101363.13;;;19.66;48.20
50702;BME280;36670;50.094;8.496;2022-10-03T13:10:35;101371.78;;;18.93;47.19
50702;BME280;36670;50.094;8.496;2022-10-03T13:13:27;101370.97;;;18.52;48.04
50702;BME280;36670;50.094;8.496;2022-10-03T13:18:51;101365.91;;;19.05;49.47
50702;BME280;36670;50.094;8.496;2022-10-03T13:26:16;101367.25;;;19.13;48.63
50702;BME280;36670;50.094;8.496;2022-10-03T13:29:07;101361.13;;;19.11;48.19
50702;BME280;36670;50.094;8.496;2022-10-03T13:34:27;101354.28;;;19.38;48.35
50702;BME280;36670;50.094;8.496;2022-10-03T13:39:36;101358.47;;;19.95;46.50
50702;BME280;36670;50.094;8.496;2022-10-03T13:42:17;101361.00;;;19.42;46.82
50702;BME280;36670;50.094;8.496;2022-10-03T13:44:50;101361.41;;;18.99;48.01
50702;BME280;36670;50.094;8.496;2022-10-03T13:47:45;101357.53;;;18.59;48.58
50702;BME280;36670;50.094;8.496;2022-10-03T13:50:13;101358.09;;;18.51;49.17
50702;BME280;36670;50.094;8.496;2022-10-03T13:52:58;101354.19;;;18.52;49.17
50702;BME280;36670;50.094;8.496;2022-10-03T13:55:47;101357.81;;;18.37;49.29
50702;BME280;36670;50.094;8.496;2022-10-03T14:04:03;101352.78;;;18.03;49.72
50702;BME280;36670;50.094;8.496;2022-10-03T14:15:43;101344.56;;;17.70;52.15
50702;BME280;36670;50.094;8.496;2022-10-03T14:18:31;101344.81;;;17.69;51.63
50702;BME280;36670;50.094;8.496;2022-10-03T14:21:10;101344.56;;;17.70;51.30
50702;BME280;36670;50.094;8.496;2022-10-03T14:26:37;101344.56;;;17.75;51.69
50702;BME280;36670;50.094;8.496;2022-10-03T14:32:17;101349.91;;;17.87;51.26
50702;BME280;36670;50.094;8.496;2022-10-03T14:35:00;101343.53;;;18.07;50.88
50702;BME280;36670;50.094;8.496;2022-10-03T14:37:45;101353.06;;;18.01;51.81
50702;BME280;36670;50.094;8.496;2022-10-03T14:40:18;101350.53;;;18.10;51.28
50702;BME280;36670;50.094;8.496;2022-10-03T14:45:45;101358.66;;;18.27;51.21
50702;BME280;36670;50.094;8.496;2022-10-03T14:48:17;101350.00;;;18.18;51.31
50702;BME280;36670;50.094;8.496;2022-10-03T14:50:44;101348.59;;;18.16;51.18
50702;BME280;36670;50.094;8.496;2022-10-03T14:53:20;101351.66;;;18.24;51.27
50702;BME280;36670;50.094;8.496;2022-10-03T14:58:21;101348.59;;;18.26;51.36
50702;BME280;36670;50.094;8.496;2022-10-03T15:01:00;101351.09;;;18.22;51.49
50702;BME280;36670;50.094;8.496;2022-10-03T15:03:30;101350.53;;;17.95;51.35
50702;BME280;36670;50.094;8.496;2022-10-03T15:08:42;101339.06;;;17.96;50.38
50702;BME280;36670;50.094;8.496;2022-10-03T15:11:10;101340.47;;;17.99;50.69
50702;BME280;36670;50.094;8.496;2022-10-03T15:13:43;101339.91;;;17.91;51.05
50702;BME280;36670;50.094;8.496;2022-10-03T15:16:16;101344.09;;;17.99;51.25
50702;BME280;36670;50.094;8.496;2022-10-03T15:18:50;101341.31;;;18.04;50.29
50702;BME280;36670;50.094;8.496;2022-10-03T15:21:17;101334.03;;;18.03;50.79
50702;BME280;36670;50.094;8.496;2022-10-03T15:23:43;101339.34;;;18.00;50.46
50702;BME280;36670;50.094;8.496;2022-10-03T15:26:15;101337.66;;;18.09;50.26
50702;BME280;36670;50.094;8.496;2022-10-03T15:28:46;101333.78;;;18.00;50.52
50702;BME280;36670;50.094;8.496;2022-10-03T15:31:27;101332.09;;;18.14;50.71
50702;BME280;36670;50.094;8.496;2022-10-03T15:33:56;101333.22;;;18.18;51.30
50702;BME280;36670;50.094;8.496;2022-10-03T15:36:25;101320.91;;;17.99;51.22
50702;BME280;36670;50.094;8.496;2022-10-03T15:38:55;101326.47;;;17.94;50.13
50702;BME280;36670;50.094;8.496;2022-10-03T15:41:33;101327.53;;;17.72;50.50
50702;BME280;36670;50.094;8.496;2022-10-03T15:44:21;101329.19;;;17.73;50.15
50702;BME280;36670;50.094;8.496;2022-10-03T15:46:50;101332.81;;;17.68;51.05
50702;BME280;36670;50.094;8.496;2022-10-03T15:49:25;101336.19;;;17.70;51.16
50702;BME280;36670;50.094;8.496;2022-10-03T15:51:52;101328.94;;;17.74;51.06
50702;BME280;36670;50.094;8.496;2022-10-03T15:54:24;101320.78;;;17.47;51.74
50702;BME280;36670;50.094;8.496;2022-10-03T15:56:55;101327.47;;;17.46;51.53
50702;BME280;36670;50.094;8.496;2022-10-03T15:59:32;101321.56;;;17.37;51.51
50702;BME280;36670;50.094;8.496;2022-10-03T16:02:08;101326.03;;;17.33;52.02
50702;BME280;36670;50.094;8.496;2022-10-03T16:04:41;101327.16;;;17.37;51.84
50702;BME280;36670;50.094;8.496;2022-10-03T16:07:18;101308.34;;;17.12;51.96
50702;BME280;36670;50.094;8.496;2022-10-03T16:09:53;101325.09;;;17.17;52.23
50702;BME280;36670;50.094;8.496;2022-10-03T16:12:55;101320.34;;;17.13;51.98
50702;BME280;36670;50.094;8.496;2022-10-03T16:18:55;101316.22;;;17.20;52.47
50702;BME280;36670;50.094;8.496;2022-10-03T16:21:36;101308.91;;;17.14;52.84
50702;BME280;36670;50.094;8.496;2022-10-03T16:24:06;101317.47;;;16.97;52.92
50702;BME280;36670;50.094;8.496;2022-10-03T16:26:49;101309.00;;;16.82;53.56
50702;BME280;36670;50.094;8.496;2022-10-03T16:29:21;101313.22;;;16.84;52.75
50702;BME280;36670;50.094;8.496;2022-10-03T16:31:53;101310.94;;;16.76;53.17
50702;BME280;36670;50.094;8.496;2022-10-03T16:34:20;101310.88;;;16.71;53.36
50702;BME280;36670;50.094;8.496;2022-10-03T16:36:49;101309.56;;;16.79;53.29
50702;BME280;36670;50.094;8.496;2022-10-03T16:39:34;101312.41;;;16.89;53.28
50702;BME280;36670;50.094;8.496;2022-10-03T16:42:09;101315.72;;;16.86;53.62
50702;BME280;36670;50.094;8.496;2022-10-03T16:44:47;101317.44;;;16.92;53.67
50702;BME280;36670;50.094;8.496;2022-10-03T16:47:14;101309.31;;;16.85;53.64
50702;BME280;36670;50.094;8.496;2022-10-03T16:49:45;101315.97;;;16.79;53.91
50702;BME280;36670;50.094;8.496;2022-10-03T16:52:36;101309.19;;;16.65;54.08
50702;BME280;36670;50.094;8.496;2022-10-03T16:55:06;101301.56;;;16.50;54.58
50702;BME280;36670;50.094;8.496;2022-10-03T16:57:43;101314.63;;;16.44;54.95
50702;BME280;36670;50.094;8.496;2022-10-03T17:00:16;101305.09;;;16.40;54.76
50702;BME280;36670;50.094;8.496;2022-10-03T17:02:44;101295.56;;;16.31;55.33
50702;BME280;36670;50.094;8.496;2022-10-03T17:05:12;101290.19;;;16.24;55.59
50702;BME280;36670;50.094;8.496;2022-10-03T17:07:41;101289.56;;;16.12;55.44
50702;BME280;36670;50.094;8.496;2022-10-03T17:10:26;101292.34;;;16.12;55.83
50702;BME280;36670;50.094;8.496;2022-10-03T17:12:57;101288.69;;;16.06;56.23
50702;BME280;36670;50.094;8.496;2022-10-03T17:15:33;101288.31;;;15.97;56.74
50702;BME280;36670;50.094;8.496;2022-10-03T17:18:22;101294.69;;;15.93;56.46
50702;BME280;36670;50.094;8.496;2022-10-03T17:21:21;101289.88;;;15.83;56.95
50702;BME280;36670;50.094;8.496;2022-10-03T17:26:22;101289.72;;;15.73;57.62
50702;BME280;36670;50.094;8.496;2022-10-03T17:28:56;101287.31;;;15.54;58.12
50702;BME280;36670;50.094;8.496;2022-10-03T17:34:07;101296.59;;;15.38;58.96
50702;BME280;36670;50.094;8.496;2022-10-03T17:37:11;101295.69;;;15.32;59.18
50702;BME280;36670;50.094;8.496;2022-10-03T17:40:17;101293.16;;;15.30;59.39
50702;BME280;36670;50.094;8.496;2022-10-03T17:48:07;101289.22;;;15.04;59.63
50702;BME280;36670;50.094;8.496;2022-10-03T17:53:02;101291.53;;;14.90;60.52
50702;BME280;36670;50.094;8.496;2022-10-03T17:57:59;101296.38;;;14.61;61.20
50702;BME280;36670;50.094;8.496;2022-10-03T18:01:02;101294.03;;;14.52;61.75
50702;BME280;36670;50.094;8.496;2022-10-03T18:03:46;101290.84;;;14.44;62.25
50702;BME280;36670;50.094;8.496;2022-10-03T18:08:45;101306.59;;;14.38;61.78
50702;BME280;36670;50.094;8.496;2022-10-03T18:11:19;101304.59;;;14.33;62.32
50702;BME280;36670;50.094;8.496;2022-10-03T18:13:50;101301.75;;;14.28;63.05
50702;BME280;36670;50.094;8.496;2022-10-03T18:16:35;101294.16;;;14.07;62.88
50702;BME280;36670;50.094;8.496;2022-10-03T18:22:06;101294.28;;;13.83;63.96
50702;BME280;36670;50.094;8.496;2022-10-03T18:24:42;101292.69;;;13.87;63.74
50702;BME280;36670;50.094;8.496;2022-10-03T18:27:48;101295.88;;;13.79;63.76
50702;BME280;36670;50.094;8.496;2022-10-03T18:30:22;101301.56;;;13.55;64.85
50702;BME280;36670;50.094;8.496;2022-10-03T18:32:50;101293.91;;;13.34;65.95
50702;BME280;36670;50.094;8.496;2022-10-03T18:35:30;101291.28;;;13.27;65.71
50702;BME280;36670;50.094;8.496;2022-10-03T18:38:10;101293.03;;;13.33;66.08
50702;BME280;36670;50.094;8.496;2022-10-03T18:40:44;101291.59;;;13.42;65.64
50702;BME280;36670;50.094;8.496;2022-10-03T18:43:43;101286.88;;;13.43;64.90
50702;BME280;36670;50.094;8.496;2022-10-03T18:46:15;101282.91;;;13.39;65.50
50702;BME280;36670;50.094;8.496;2022-10-03T18:52:04;101287.75;;;13.03;67.14
50702;BME280;36670;50.094;8.496;2022-10-03T18:54:22;101283.47;;;13.12;66.87
50702;BME280;36670;50.094;8.496;2022-10-03T19:02:57;101290.59;;;13.08;66.66
50702;BME280;36670;50.094;8.496;2022-10-03T19:05:34;101296.44;;;12.94;66.42
50702;BME280;36670;50.094;8.496;2022-10-03T19:08:18;101290.97;;;13.00;67.02
50702;BME280;36670;50.094;8.496;2022-10-03T19:10:49;101290.53;;;12.91;67.00
50702;BME280;36670;50.094;8.496;2022-10-03T19:16:03;101292.22;;;12.80;66.99
50702;BME280;36670;50.094;8.496;2022-10-03T19:18:59;101288.88;;;12.42;69.27
50702;BME280;36670;50.094;8.496;2022-10-03T19:21:27;101284.06;;;12.50;68.63
50702;BME280;36670;50.094;8.496;2022-10-03T19:23:59;101285.38;;;12.59;67.86
50702;BME280;36670;50.094;8.496;2022-10-03T19:26:31;101289.34;;;12.63;68.00
50702;BME280;36670;50.094;8.496;2022-10-03T19:29:09;101287.31;;;12.58;68.08
50702;BME280;36670;50.094;8.496;2022-10-03T19:34:31;101276.94;;;12.30;69.54
50702;BME280;36670;50.094;8.496;2022-10-03T19:36:58;101281.88;;;12.40;68.43
50702;BME280;36670;50.094;8.496;2022-10-03T19:39:27;101276.47;;;12.45;68.57
50702;BME280;36670;50.094;8.496;2022-10-03T19:42:21;101266.59;;;12.49;68.96
50702;BME280;36670;50.094;8.496;2022-10-03T19:44:49;101272.00;;;12.44;68.54
50702;BME280;36670;50.094;8.496;2022-10-03T19:47:29;101272.59;;;12.10;70.36
50702;BME280;36670;50.094;8.496;2022-10-03T19:52:46;101272.97;;;12.14;69.54
50702;BME280;36670;50.094;8.496;2022-10-03T19:55:31;101273.47;;;12.23;68.85
50702;BME280;36670;50.094;8.496;2022-10-03T19:58:14;101273.59;;;12.28;69.31
50702;BME280;36670;50.094;8.496;2022-10-03T20:00:49;101271.16;;;12.32;69.00
50702;BME280;36670;50.094;8.496;2022-10-03T20:03:18;101277.56;;;12.32;68.55
50702;BME280;36670;50.094;8.496;2022-10-03T20:05:59;101279.00;;;12.23;68.79
50702;BME280;36670;50.094;8.496;2022-10-03T20:08:37;101277.31;;;12.22;69.29
50702;BME280;36670;50.094;8.496;2022-10-03T20:11:13;101281.88;;;12.16;68.74
50702;BME280;36670;50.094;8.496;2022-10-03T20:13:41;101275.75;;;12.14;69.52
50702;BME280;36670;50.094;8.496;2022-10-03T20:16:13;101278.63;;;12.07;69.04
50702;BME280;36670;50.094;8.496;2022-10-03T20:18:39;101279.94;;;12.05;69.64
50702;BME280;36670;50.094;8.496;2022-10-03T20:21:09;101278.63;;;12.07;69.03
50702;BME280;36670;50.094;8.496;2022-10-03T20:23:39;101265.41;;;12.09;68.75
50702;BME280;36670;50.094;8.496;2022-10-03T20:29:37;101257.78;;;11.93;69.12
50702;BME280;36670;50.094;8.496;2022-10-03T20:32:04;101267.97;;;11.92;69.33
50702;BME280;36670;50.094;8.496;2022-10-03T20:34:33;101270.16;;;11.90;69.36
50702;BME280;36670;50.094;8.496;2022-10-03T20:37:16;101269.78;;;11.87;69.02
50702;BME280;36670;50.094;8.496;2022-10-03T20:39:44;101268.56;;;11.83;68.72
50702;BME280;36670;50.094;8.496;2022-10-03T20:42:21;101264.34;;;11.80;69.35
50702;BME280;36670;50.094;8.496;2022-10-03T20:45:00;101273.97;;;11.77;68.81
50702;BME280;36670;50.094;8.496;2022-10-03T20:50:28;101274.56;;;11.68;69.74
50702;BME280;36670;50.094;8.496;2022-10-03T20:55:25;101292.47;;;11.65;69.49
50702;BME280;36670;50.094;8.496;2022-10-03T20:57:53;101276.34;;;11.32;70.87
50702;BME280;36670;50.094;8.496;2022-10-03T21:00:24;101275.50;;;11.31;70.40
50702;BME280;36670;50.094;8.496;2022-10-03T21:03:06;101270.28;;;11.23;70.73
50702;BME280;36670;50.094;8.496;2022-10-03T21:05:42;101276.03;;;11.21;71.33
50702;BME280;36670;50.094;8.496;2022-10-03T21:08:18;101275.72;;;11.30;70.43
50702;BME280;36670;50.094;8.496;2022-10-03T21:11:13;101267.91;;;11.26;71.36
50702;BME280;36670;50.094;8.496;2022-10-03T21:13:50;101272.91;;;11.18;71.78
50702;BME280;36670;50.094;8.496;2022-10-03T21:16:22;101274.81;;;11.17;71.73
50702;BME280;36670;50.094;8.496;2022-10-03T21:18:50;101263.53;;;11.19;71.50
50702;BME280;36670;50.094;8.496;2022-10-03T21:21:40;101269.06;;;11.19;70.99
50702;BME280;36670;50.094;8.496;2022-10-03T21:24:24;101266.09;;;11.20;70.78
50702;BME280;36670;50.094;8.496;2022-10-03T21:26:54;101266.09;;;11.20;71.29
50702;BME280;36670;50.094;8.496;2022-10-03T21:34:51;101258.13;;;11.12;71.34
50702;BME280;36670;50.094;8.496;2022-10-03T21:39:58;101258.31;;;11.10;70.86
50702;BME280;36670;50.094;8.496;2022-10-03T21:42:40;101268.69;;;10.97;71.86
50702;BME280;36670;50.094;8.496;2022-10-03T21:45:16;101279.22;;;10.88;71.35
50702;BME280;36670;50.094;8.496;2022-10-03T21:47:51;101267.88;;;10.78;71.76
50702;BME280;36670;50.094;8.496;2022-10-03T21:50:27;101262.13;;;10.79;71.26
50702;BME280;36670;50.094;8.496;2022-10-03T21:53:05;101256.84;;;10.78;71.81
50702;BME280;36670;50.094;8.496;2022-10-03T21:55:57;101252.75;;;10.62;72.58
50702;BME280;36670;50.094;8.496;2022-10-03T22:03:58;101249.09;;;10.68;71.73
50702;BME280;36670;50.094;8.496;2022-10-03T22:06:34;101260.72;;;10.70;72.20
50702;BME280;36670;50.094;8.496;2022-10-03T22:09:09;101253.91;;;10.72;72.17
50702;BME280;36670;50.094;8.496;2022-10-03T22:11:43;101249.84;;;10.75;71.41
50702;BME280;36670;50.094;8.496;2022-10-03T22:17:07;101253.31;;;10.70;71.64
50702;BME280;36670;50.094;8.496;2022-10-03T22:20:03;101248.16;;;10.74;71.43
50702;BME280;36670;50.094;8.496;2022-10-03T22:23:03;101237.72;;;10.76;71.23
50702;BME280;36670;50.094;8.496;2022-10-03T22:25:50;101220.84;;;10.66;72.03
50702;BME280;36670;50.094;8.496;2022-10-03T22:28:32;101223.38;;;10.67;72.05
50702;BME280;36670;50.094;8.496;2022-10-03T22:36:19;101215.25;;;10.72;71.22
50702;BME280;36670;50.094;8.496;2022-10-03T22:38:46;101210.94;;;10.76;71.32
50702;BME280;36670;50.094;8.496;2022-10-03T22:41:18;101206.72;;;10.74;71.18
50702;BME280;36670;50.094;8.496;2022-10-03T22:43:46;101215.94;;;10.68;70.54
50702;BME280;36670;50.094;8.496;2022-10-03T22:46:16;101211.50;;;10.67;71.25
50702;BME280;36670;50.094;8.496;2022-10-03T22:48:50;101207.72;;;10.61;71.35
50702;BME280;36670;50.094;8.496;2022-10-03T22:51:18;101207.69;;;10.24;72.04
50702;BME280;36670;50.094;8.496;2022-10-03T22:53:49;101206.44;;;10.01;72.84
50702;BME280;36670;50.094;8.496;2022-10-03T22:56:51;101199.03;;;10.20;72.02
50702;BME280;36670;50.094;8.496;2022-10-03T22:59:20;101201.84;;;10.14;72.80
50702;BME280;36670;50.094;8.496;2022-10-03T23:01:50;101203.16;;;10.11;73.01
50702;BME280;36670;50.094;8.496;2022-10-03T23:04:50;101201.06;;;10.06;73.02
50702;BME280;36670;50.094;8.496;2022-10-03T23:10:17;101204.06;;;10.05;73.00
50702;BME280;36670;50.094;8.496;2022-10-03T23:12:59;101194.25;;;10.09;73.19
50702;BME280;36670;50.094;8.496;2022-10-03T23:15:28;101188.22;;;10.19;72.77
50702;BME280;36670;50.094;8.496;2022-10-03T23:21:11;101189.59;;;10.10;72.84
50702;BME280;36670;50.094;8.496;2022-10-03T23:24:02;101191.38;;;9.79;74.35
50702;BME280;36670;50.094;8.496;2022-10-03T23:26:47;101197.03;;;9.84;73.84
50702;BME280;36670;50.094;8.496;2022-10-03T23:29:18;101182.56;;;9.88;73.78